sensor_id;sensor_type;location;lat;lon;timestamp;pressure;altitude;pressure_sealevel;temperature;humidity
65659;BME280;60181;53.258;6.932;2023-07-28T00:03:30;100371.70;;;20.30;69.37
65659;BME280;60181;53.258;6.932;2023-07-28T00:07:40;100371.95;;;20.29;69.45
65659;BME280;60181;53.258;6.932;2023-07-28T00:11:50;100372.49;;;20.28;69.42
65659;BME280;60181;53.258;6.932;2023-07-28T00:16:00;100372.81;;;20.28;69.52
65659;BME280;60181;53.258;6.932;2023-07-28T00:20:10;100373.21;;;20.28;69.44
65659;BME280;60181;53.258;6.932;2023-07-28T00:24:20;100373.14;;;20.28;69.70
65659;BME280;60181;53.258;6.932;2023-07-28T00:28:30;100372.97;;;20.28;69.87
65659;BME280;60181;53.258;6.932;2023-07-28T00:32:40;100372.80;;;20.28;70.09
65659;BME280;60181;53.258;6.932;2023-07-28T00:36:50;100372.41;;;20.28;70.27
65659;BME280;60181;53.258;6.932;2023-07-28T00:41:00;100372.50;;;20.27;70.28
65659;BME280;60181;53.258;6.932;2023-07-28T00:45:10;100372.24;;;20.28;70.72
65659;BME280;60181;53.258;6.932;2023-07-28T00:49:19;100372.21;;;20.28;70.14
65659;BME280;60181;53.258;6.932;2023-07-28T00:53:29;100371.45;;;20.29;69.99
65659;BME280;60181;53.258;6.932;2023-07-28T00:57:39;100370.79;;;20.29;70.62
65659;BME280;60181;53.258;6.932;2023-07-28T01:01:49;100370.37;;;20.30;70.37
65659;BME280;60181;53.258;6.932;2023-07-28T01:10:14;100371.92;;;20.31;70.55
65659;BME280;60181;53.258;6.932;2023-07-28T01:14:19;100372.49;;;20.31;70.37
65659;BME280;60181;53.258;6.932;2023-07-28T01:18:29;100373.17;;;20.32;70.61
65659;BME280;60181;53.258;6.932;2023-07-28T01:22:45;100372.91;;;20.32;70.53
65659;BME280;60181;53.258;6.932;2023-07-28T01:26:49;100371.64;;;20.32;70.82
65659;BME280;60181;53.258;6.932;2023-07-28T01:31:01;100372.31;;;20.33;70.29
65659;BME280;60181;53.258;6.932;2023-07-28T01:35:09;100372.89;;;20.33;70.42
65659;BME280;60181;53.258;6.932;2023-07-28T01:39:19;100372.45;;;20.33;70.55
65659;BME280;60181;53.258;6.932;2023-07-28T01:43:29;100372.53;;;20.34;70.43
65659;BME280;60181;53.258;6.932;2023-07-28T01:47:39;100373.63;;;20.34;70.44
65659;BME280;60181;53.258;6.932;2023-07-28T01:51:49;100374.77;;;20.34;70.91
65659;BME280;60181;53.258;6.932;2023-07-28T01:55:59;100374.17;;;20.35;71.12
65659;BME280;60181;53.258;6.932;2023-07-28T02:00:10;100373.35;;;20.35;71.16
65659;BME280;60181;53.258;6.932;2023-07-28T02:04:19;100372.85;;;20.35;70.87
65659;BME280;60181;53.258;6.932;2023-07-28T02:08:29;100372.60;;;20.35;71.07
65659;BME280;60181;53.258;6.932;2023-07-28T02:12:39;100372.49;;;20.36;71.33
65659;BME280;60181;53.258;6.932;2023-07-28T02:16:49;100372.41;;;20.36;70.50
65659;BME280;60181;53.258;6.932;2023-07-28T02:20:59;100374.73;;;20.36;70.75
65659;BME280;60181;53.258;6.932;2023-07-28T02:25:10;100376.40;;;20.36;70.78
65659;BME280;60181;53.258;6.932;2023-07-28T02:29:19;100379.22;;;20.36;70.90
65659;BME280;60181;53.258;6.932;2023-07-28T02:33:29;100382.06;;;20.36;70.46
65659;BME280;60181;53.258;6.932;2023-07-28T02:37:39;100384.72;;;20.36;70.51
65659;BME280;60181;53.258;6.932;2023-07-28T02:41:49;100386.64;;;20.36;70.97
65659;BME280;60181;53.258;6.932;2023-07-28T02:45:59;100388.20;;;20.36;71.78
65659;BME280;60181;53.258;6.932;2023-07-28T02:50:09;100390.03;;;20.36;71.34
65659;BME280;60181;53.258;6.932;2023-07-28T02:54:19;100391.63;;;20.36;71.15
65659;BME280;60181;53.258;6.932;2023-07-28T02:58:29;100393.38;;;20.35;71.24
65659;BME280;60181;53.258;6.932;2023-07-28T03:02:39;100395.47;;;20.35;71.69
65659;BME280;60181;53.258;6.932;2023-07-28T03:06:49;100397.64;;;20.35;71.71
65659;BME280;60181;53.258;6.932;2023-07-28T03:10:59;100399.73;;;20.35;71.64
65659;BME280;60181;53.258;6.932;2023-07-28T03:15:09;100401.45;;;20.35;71.95
65659;BME280;60181;53.258;6.932;2023-07-28T03:19:19;100403.55;;;20.35;71.87
65659;BME280;60181;53.258;6.932;2023-07-28T03:23:29;100405.78;;;20.35;71.72
65659;BME280;60181;53.258;6.932;2023-07-28T03:27:39;100408.12;;;20.35;71.44
65659;BME280;60181;53.258;6.932;2023-07-28T03:31:49;100410.11;;;20.35;71.19
65659;BME280;60181;53.258;6.932;2023-07-28T03:35:59;100411.78;;;20.35;71.21
65659;BME280;60181;53.258;6.932;2023-07-28T03:40:10;100413.78;;;20.35;71.70
65659;BME280;60181;53.258;6.932;2023-07-28T03:44:19;100416.49;;;20.36;72.04
65659;BME280;60181;53.258;6.932;2023-07-28T03:48:29;100417.82;;;20.36;72.29
65659;BME280;60181;53.258;6.932;2023-07-28T03:52:39;100419.06;;;20.37;72.04
65659;BME280;60181;53.258;6.932;2023-07-28T03:56:49;100421.79;;;20.37;72.23
65659;BME280;60181;53.258;6.932;2023-07-28T04:00:59;100423.78;;;20.37;72.43
65659;BME280;60181;53.258;6.932;2023-07-28T04:05:09;100425.54;;;20.37;72.36
65659;BME280;60181;53.258;6.932;2023-07-28T04:09:19;100427.80;;;20.36;72.16
65659;BME280;60181;53.258;6.932;2023-07-28T04:13:29;100430.80;;;20.36;72.46
65659;BME280;60181;53.258;6.932;2023-07-28T04:17:39;100432.54;;;20.36;72.11
65659;BME280;60181;53.258;6.932;2023-07-28T04:21:49;100433.38;;;20.36;72.45
65659;BME280;60181;53.258;6.932;2023-07-28T04:25:59;100433.22;;;20.36;72.56
65659;BME280;60181;53.258;6.932;2023-07-28T04:30:10;100433.45;;;20.36;72.45
65659;BME280;60181;53.258;6.932;2023-07-28T04:34:19;100435.71;;;20.36;72.60
65659;BME280;60181;53.258;6.932;2023-07-28T04:38:29;100439.76;;;20.36;73.19
65659;BME280;60181;53.258;6.932;2023-07-28T04:42:39;100444.28;;;20.35;74.74
65659;BME280;60181;53.258;6.932;2023-07-28T04:46:49;100448.71;;;20.35;74.09
65659;BME280;60181;53.258;6.932;2023-07-28T04:50:59;100453.36;;;20.35;73.42
65659;BME280;60181;53.258;6.932;2023-07-28T04:55:09;100458.01;;;20.35;73.29
65659;BME280;60181;53.258;6.932;2023-07-28T04:59:19;100461.67;;;20.35;72.17
65659;BME280;60181;53.258;6.932;2023-07-28T05:03:29;100464.76;;;20.34;72.64
65659;BME280;60181;53.258;6.932;2023-07-28T05:07:39;100468.66;;;20.35;72.08
65659;BME280;60181;53.258;6.932;2023-07-28T05:11:49;100471.75;;;20.35;72.05
65659;BME280;60181;53.258;6.932;2023-07-28T05:15:59;100474.22;;;20.35;72.20
65659;BME280;60181;53.258;6.932;2023-07-28T05:20:10;100474.73;;;20.35;72.14
65659;BME280;60181;53.258;6.932;2023-07-28T05:24:19;100475.03;;;20.36;71.88
65659;BME280;60181;53.258;6.932;2023-07-28T05:28:31;100475.80;;;20.36;72.43
65659;BME280;60181;53.258;6.932;2023-07-28T05:32:39;100477.20;;;20.36;71.95
65659;BME280;60181;53.258;6.932;2023-07-28T05:36:49;100477.97;;;20.36;72.16
65659;BME280;60181;53.258;6.932;2023-07-28T05:40:59;100478.47;;;20.36;71.71
65659;BME280;60181;53.258;6.932;2023-07-28T05:45:09;100477.97;;;20.36;71.69
65659;BME280;60181;53.258;6.932;2023-07-28T05:49:19;100478.70;;;20.36;71.92
65659;BME280;60181;53.258;6.932;2023-07-28T05:53:29;100479.44;;;20.37;72.08
65659;BME280;60181;53.258;6.932;2023-07-28T05:57:39;100481.44;;;20.37;71.98
65659;BME280;60181;53.258;6.932;2023-07-28T06:01:49;100483.93;;;20.37;72.12
65659;BME280;60181;53.258;6.932;2023-07-28T06:05:59;100487.35;;;20.36;71.70
65659;BME280;60181;53.258;6.932;2023-07-28T06:10:09;100490.44;;;20.36;71.78
65659;BME280;60181;53.258;6.932;2023-07-28T06:14:19;100493.60;;;20.36;71.52
65659;BME280;60181;53.258;6.932;2023-07-28T06:18:29;100496.17;;;20.36;71.25
65659;BME280;60181;53.258;6.932;2023-07-28T06:22:39;100498.07;;;20.37;72.56
65659;BME280;60181;53.258;6.932;2023-07-28T06:26:49;100501.09;;;20.36;66.74
65659;BME280;60181;53.258;6.932;2023-07-28T06:30:59;100504.14;;;20.36;68.56
65659;BME280;60181;53.258;6.932;2023-07-28T06:35:09;100507.06;;;20.36;69.15
65659;BME280;60181;53.258;6.932;2023-07-28T06:39:19;100510.89;;;20.36;68.26
65659;BME280;60181;53.258;6.932;2023-07-28T06:43:29;100515.95;;;20.36;69.80
65659;BME280;60181;53.258;6.932;2023-07-28T06:47:39;100520.78;;;20.36;69.93
65659;BME280;60181;53.258;6.932;2023-07-28T06:51:49;100524.44;;;20.36;71.20
65659;BME280;60181;53.258;6.932;2023-07-28T06:55:59;100529.21;;;20.36;71.33
65659;BME280;60181;53.258;6.932;2023-07-28T07:00:09;100534.27;;;20.36;71.39
65659;BME280;60181;53.258;6.932;2023-07-28T07:04:19;100539.75;;;20.36;69.92
65659;BME280;60181;53.258;6.932;2023-07-28T07:08:29;100545.08;;;20.36;70.57
65659;BME280;60181;53.258;6.932;2023-07-28T07:12:39;100551.65;;;20.36;70.48
65659;BME280;60181;53.258;6.932;2023-07-28T07:16:49;100558.54;;;20.36;71.04
65659;BME280;60181;53.258;6.932;2023-07-28T07:21:02;100565.27;;;20.37;69.91
65659;BME280;60181;53.258;6.932;2023-07-28T07:25:09;100572.77;;;20.37;69.68
65659;BME280;60181;53.258;6.932;2023-07-28T07:29:19;100578.97;;;20.38;69.25
65659;BME280;60181;53.258;6.932;2023-07-28T07:33:29;100584.45;;;20.40;69.53
65659;BME280;60181;53.258;6.932;2023-07-28T07:37:39;100589.15;;;20.42;70.09
65659;BME280;60181;53.258;6.932;2023-07-28T07:41:49;100594.09;;;20.45;70.92
65659;BME280;60181;53.258;6.932;2023-07-28T07:45:59;100600.27;;;20.49;71.10
65659;BME280;60181;53.258;6.932;2023-07-28T07:50:10;100606.14;;;20.52;71.07
65659;BME280;60181;53.258;6.932;2023-07-28T07:54:19;100612.22;;;20.56;71.38
65659;BME280;60181;53.258;6.932;2023-07-28T07:58:29;100618.73;;;20.59;71.38
65659;BME280;60181;53.258;6.932;2023-07-28T08:02:39;100623.94;;;20.61;71.31
65659;BME280;60181;53.258;6.932;2023-07-28T08:06:49;100629.33;;;20.63;71.49
65659;BME280;60181;53.258;6.932;2023-07-28T08:10:59;100633.81;;;20.64;71.19
65659;BME280;60181;53.258;6.932;2023-07-28T08:15:09;100639.04;;;20.65;71.21
65659;BME280;60181;53.258;6.932;2023-07-28T08:19:19;100642.58;;;20.66;71.27
65659;BME280;60181;53.258;6.932;2023-07-28T08:23:29;100646.17;;;20.67;71.04
65659;BME280;60181;53.258;6.932;2023-07-28T08:27:39;100649.14;;;20.68;71.50
65659;BME280;60181;53.258;6.932;2023-07-28T08:31:49;100651.87;;;20.70;71.94
65659;BME280;60181;53.258;6.932;2023-07-28T08:35:59;100654.46;;;20.76;71.23
65659;BME280;60181;53.258;6.932;2023-07-28T08:40:09;100658.09;;;20.82;71.20
65659;BME280;60181;53.258;6.932;2023-07-28T08:44:19;100660.11;;;20.87;70.84
65659;BME280;60181;53.258;6.932;2023-07-28T08:48:29;100663.79;;;20.90;70.70
65659;BME280;60181;53.258;6.932;2023-07-28T08:52:39;100666.69;;;20.91;70.54
65659;BME280;60181;53.258;6.932;2023-07-28T08:56:49;100669.69;;;20.92;70.36
65659;BME280;60181;53.258;6.932;2023-07-28T09:00:59;100672.34;;;20.91;70.30
65659;BME280;60181;53.258;6.932;2023-07-28T09:05:18;100676.76;;;20.90;70.30
65659;BME280;60181;53.258;6.932;2023-07-28T09:09:20;100682.37;;;20.90;70.13
65659;BME280;60181;53.258;6.932;2023-07-28T09:13:35;100687.59;;;20.89;69.82
65659;BME280;60181;53.258;6.932;2023-07-28T09:17:42;100692.28;;;20.89;70.16
65659;BME280;60181;53.258;6.932;2023-07-28T09:22:01;100696.97;;;20.88;70.13
65659;BME280;60181;53.258;6.932;2023-07-28T09:25:59;100699.36;;;20.88;69.97
65659;BME280;60181;53.258;6.932;2023-07-28T09:30:09;100700.80;;;20.88;69.82
65659;BME280;60181;53.258;6.932;2023-07-28T09:34:25;100701.84;;;20.91;69.40
65659;BME280;60181;53.258;6.932;2023-07-28T09:38:29;100703.02;;;20.95;68.98
65659;BME280;60181;53.258;6.932;2023-07-28T09:42:39;100704.71;;;20.98;69.19
65659;BME280;60181;53.258;6.932;2023-07-28T09:46:52;100705.76;;;20.99;69.13
65659;BME280;60181;53.258;6.932;2023-07-28T09:51:00;100708.81;;;21.02;68.57
65659;BME280;60181;53.258;6.932;2023-07-28T09:55:09;100711.75;;;21.05;67.97
65659;BME280;60181;53.258;6.932;2023-07-28T09:59:19;100714.98;;;21.06;68.04
65659;BME280;60181;53.258;6.932;2023-07-28T10:03:29;100717.46;;;21.08;67.92
65659;BME280;60181;53.258;6.932;2023-07-28T10:07:39;100720.59;;;21.09;67.82
65659;BME280;60181;53.258;6.932;2023-07-28T10:11:49;100722.66;;;21.10;67.83
65659;BME280;60181;53.258;6.932;2023-07-28T10:15:59;100725.22;;;21.11;67.80
65659;BME280;60181;53.258;6.932;2023-07-28T10:24:19;100727.83;;;21.15;67.21
65659;BME280;60181;53.258;6.932;2023-07-28T10:28:33;100729.41;;;21.19;67.05
65659;BME280;60181;53.258;6.932;2023-07-28T10:32:40;100731.78;;;21.22;67.18
65659;BME280;60181;53.258;6.932;2023-07-28T10:36:58;100733.32;;;21.25;67.12
65659;BME280;60181;53.258;6.932;2023-07-28T10:41:05;100733.54;;;21.26;67.17
65659;BME280;60181;53.258;6.932;2023-07-28T10:45:09;100734.33;;;21.28;66.98
65659;BME280;60181;53.258;6.932;2023-07-28T10:49:19;100734.13;;;21.31;66.92
65659;BME280;60181;53.258;6.932;2023-07-28T10:53:29;100734.86;;;21.32;66.99
65659;BME280;60181;53.258;6.932;2023-07-28T10:57:40;100735.76;;;21.33;67.05
65659;BME280;60181;53.258;6.932;2023-07-28T11:01:49;100736.77;;;21.33;66.95
65659;BME280;60181;53.258;6.932;2023-07-28T11:05:59;100737.60;;;21.33;67.04
65659;BME280;60181;53.258;6.932;2023-07-28T11:10:09;100739.26;;;21.33;67.04
65659;BME280;60181;53.258;6.932;2023-07-28T11:14:19;100741.11;;;21.32;66.73
65659;BME280;60181;53.258;6.932;2023-07-28T11:18:29;100742.10;;;21.33;66.50
65659;BME280;60181;53.258;6.932;2023-07-28T11:22:39;100743.28;;;21.32;66.57
65659;BME280;60181;53.258;6.932;2023-07-28T11:26:49;100744.27;;;21.32;66.50
65659;BME280;60181;53.258;6.932;2023-07-28T11:30:59;100746.15;;;21.33;66.27
65659;BME280;60181;53.258;6.932;2023-07-28T11:35:09;100748.00;;;21.33;66.41
65659;BME280;60181;53.258;6.932;2023-07-28T11:39:19;100749.75;;;21.33;66.64
65659;BME280;60181;53.258;6.932;2023-07-28T11:43:29;100751.93;;;21.32;67.07
65659;BME280;60181;53.258;6.932;2023-07-28T11:47:39;100754.25;;;21.33;67.15
65659;BME280;60181;53.258;6.932;2023-07-28T11:51:49;100755.98;;;21.34;67.29
65659;BME280;60181;53.258;6.932;2023-07-28T11:55:59;100756.34;;;21.36;67.79
65659;BME280;60181;53.258;6.932;2023-07-28T12:00:09;100756.48;;;21.38;68.12
65659;BME280;60181;53.258;6.932;2023-07-28T12:04:19;100758.15;;;21.39;68.33
65659;BME280;60181;53.258;6.932;2023-07-28T12:08:35;100758.81;;;21.40;68.51
65659;BME280;60181;53.258;6.932;2023-07-28T12:12:40;100759.52;;;21.41;68.50
65659;BME280;60181;53.258;6.932;2023-07-28T12:16:49;100760.92;;;21.42;68.13
65659;BME280;60181;53.258;6.932;2023-07-28T12:20:59;100761.22;;;21.44;68.01
65659;BME280;60181;53.258;6.932;2023-07-28T12:25:09;100761.80;;;21.45;68.23
65659;BME280;60181;53.258;6.932;2023-07-28T12:29:19;100761.30;;;21.45;68.63
65659;BME280;60181;53.258;6.932;2023-07-28T12:33:29;100762.82;;;21.44;69.03
65659;BME280;60181;53.258;6.932;2023-07-28T12:37:39;100764.62;;;21.45;68.93
65659;BME280;60181;53.258;6.932;2023-07-28T12:41:49;100765.63;;;21.45;68.92
65659;BME280;60181;53.258;6.932;2023-07-28T12:45:59;100767.78;;;21.46;68.76
65659;BME280;60181;53.258;6.932;2023-07-28T12:50:09;100768.94;;;21.46;68.75
65659;BME280;60181;53.258;6.932;2023-07-28T12:54:19;100769.41;;;21.47;68.42
65659;BME280;60181;53.258;6.932;2023-07-28T12:58:29;100770.73;;;21.49;68.25
65659;BME280;60181;53.258;6.932;2023-07-28T13:02:42;100773.64;;;21.49;68.27
65659;BME280;60181;53.258;6.932;2023-07-28T13:06:49;100777.70;;;21.49;68.13
65659;BME280;60181;53.258;6.932;2023-07-28T13:10:59;100779.97;;;21.49;68.06
65659;BME280;60181;53.258;6.932;2023-07-28T13:15:09;100780.38;;;21.49;67.88
65659;BME280;60181;53.258;6.932;2023-07-28T13:19:19;100782.11;;;21.50;68.06
65659;BME280;60181;53.258;6.932;2023-07-28T13:23:29;100782.28;;;21.50;68.08
65659;BME280;60181;53.258;6.932;2023-07-28T13:27:39;100783.36;;;21.50;68.05
65659;BME280;60181;53.258;6.932;2023-07-28T13:31:49;100785.43;;;21.51;68.17
65659;BME280;60181;53.258;6.932;2023-07-28T13:35:59;100785.03;;;21.51;68.14
65659;BME280;60181;53.258;6.932;2023-07-28T13:40:09;100785.36;;;21.51;68.21
65659;BME280;60181;53.258;6.932;2023-07-28T13:44:18;100786.53;;;21.51;68.27
65659;BME280;60181;53.258;6.932;2023-07-28T13:48:28;100785.96;;;21.50;68.35
65659;BME280;60181;53.258;6.932;2023-07-28T13:52:38;100786.44;;;21.50;68.42
65659;BME280;60181;53.258;6.932;2023-07-28T13:56:48;100786.44;;;21.50;68.38
65659;BME280;60181;53.258;6.932;2023-07-28T14:00:58;100786.78;;;21.50;68.20
65659;BME280;60181;53.258;6.932;2023-07-28T14:05:08;100788.51;;;21.51;68.06
65659;BME280;60181;53.258;6.932;2023-07-28T14:09:18;100789.25;;;21.52;68.04
65659;BME280;60181;53.258;6.932;2023-07-28T14:13:28;100789.33;;;21.53;68.04
65659;BME280;60181;53.258;6.932;2023-07-28T14:17:38;100787.94;;;21.55;67.89
65659;BME280;60181;53.258;6.932;2023-07-28T14:21:48;100786.33;;;21.57;67.99
65659;BME280;60181;53.258;6.932;2023-07-28T14:25:58;100786.49;;;21.58;67.95
65659;BME280;60181;53.258;6.932;2023-07-28T14:30:09;100788.39;;;21.59;68.04
65659;BME280;60181;53.258;6.932;2023-07-28T14:34:18;100790.91;;;21.60;68.05
65659;BME280;60181;53.258;6.932;2023-07-28T14:38:28;100792.53;;;21.61;67.96
65659;BME280;60181;53.258;6.932;2023-07-28T14:42:38;100792.95;;;21.62;67.89
65659;BME280;60181;53.258;6.932;2023-07-28T14:46:48;100793.48;;;21.64;67.76
65659;BME280;60181;53.258;6.932;2023-07-28T14:50:58;100793.38;;;21.66;67.63
65659;BME280;60181;53.258;6.932;2023-07-28T14:55:08;100795.20;;;21.67;67.75
65659;BME280;60181;53.258;6.932;2023-07-28T14:59:18;100796.12;;;21.66;67.74
65659;BME280;60181;53.258;6.932;2023-07-28T15:03:28;100798.12;;;21.66;67.89
65659;BME280;60181;53.258;6.932;2023-07-28T15:07:38;100799.52;;;21.66;67.67
65659;BME280;60181;53.258;6.932;2023-07-28T15:11:48;100799.13;;;21.66;68.11
65659;BME280;60181;53.258;6.932;2023-07-28T15:15:58;100798.95;;;21.66;68.75
65659;BME280;60181;53.258;6.932;2023-07-28T15:20:09;100799.38;;;21.65;68.90
65659;BME280;60181;53.258;6.932;2023-07-28T15:24:18;100798.16;;;21.64;69.09
65659;BME280;60181;53.258;6.932;2023-07-28T15:28:28;100796.75;;;21.64;69.09
65659;BME280;60181;53.258;6.932;2023-07-28T15:32:38;100796.94;;;21.63;69.31
65659;BME280;60181;53.258;6.932;2023-07-28T15:36:48;100797.67;;;21.63;69.52
65659;BME280;60181;53.258;6.932;2023-07-28T15:40:58;100798.32;;;21.64;69.66
65659;BME280;60181;53.258;6.932;2023-07-28T15:45:09;100797.47;;;21.65;69.21
65659;BME280;60181;53.258;6.932;2023-07-28T15:49:18;100797.63;;;21.66;69.28
65659;BME280;60181;53.258;6.932;2023-07-28T15:53:28;100797.69;;;21.67;69.50
65659;BME280;60181;53.258;6.932;2023-07-28T15:57:38;100798.36;;;21.67;69.52
65659;BME280;60181;53.258;6.932;2023-07-28T16:01:48;100798.63;;;21.66;69.52
65659;BME280;60181;53.258;6.932;2023-07-28T16:05:58;100799.69;;;21.66;69.48
65659;BME280;60181;53.258;6.932;2023-07-28T16:10:09;100800.05;;;21.66;69.42
65659;BME280;60181;53.258;6.932;2023-07-28T16:14:18;100800.54;;;21.65;69.41
65659;BME280;60181;53.258;6.932;2023-07-28T16:18:28;100801.06;;;21.65;69.29
65659;BME280;60181;53.258;6.932;2023-07-28T16:22:38;100800.98;;;21.64;69.37
65659;BME280;60181;53.258;6.932;2023-07-28T16:26:48;100801.60;;;21.63;69.21
65659;BME280;60181;53.258;6.932;2023-07-28T16:30:58;100801.86;;;21.62;69.16
65659;BME280;60181;53.258;6.932;2023-07-28T16:35:08;100802.61;;;21.62;69.13
65659;BME280;60181;53.258;6.932;2023-07-28T16:39:18;100803.03;;;21.61;69.19
65659;BME280;60181;53.258;6.932;2023-07-28T16:43:28;100802.15;;;21.60;69.13
65659;BME280;60181;53.258;6.932;2023-07-28T16:47:38;100802.55;;;21.59;69.14
65659;BME280;60181;53.258;6.932;2023-07-28T16:51:48;100803.63;;;21.58;69.09
65659;BME280;60181;53.258;6.932;2023-07-28T16:55:58;100804.14;;;21.57;69.04
65659;BME280;60181;53.258;6.932;2023-07-28T17:00:09;100805.27;;;21.57;69.01
65659;BME280;60181;53.258;6.932;2023-07-28T17:04:18;100806.19;;;21.56;69.02
65659;BME280;60181;53.258;6.932;2023-07-28T17:08:28;100805.03;;;21.55;69.06
65659;BME280;60181;53.258;6.932;2023-07-28T17:12:38;100805.95;;;21.54;69.08
65659;BME280;60181;53.258;6.932;2023-07-28T17:16:48;100808.73;;;21.53;69.06
65659;BME280;60181;53.258;6.932;2023-07-28T17:20:58;100812.99;;;21.52;68.99
65659;BME280;60181;53.258;6.932;2023-07-28T17:25:08;100814.01;;;21.52;68.93
65659;BME280;60181;53.258;6.932;2023-07-28T17:29:18;100814.34;;;21.52;68.93
65659;BME280;60181;53.258;6.932;2023-07-28T17:33:28;100817.25;;;21.52;68.84
65659;BME280;60181;53.258;6.932;2023-07-28T17:37:38;100819.67;;;21.51;68.91
65659;BME280;60181;53.258;6.932;2023-07-28T17:41:48;100820.10;;;21.51;68.89
65659;BME280;60181;53.258;6.932;2023-07-28T17:45:58;100818.59;;;21.51;68.93
65659;BME280;60181;53.258;6.932;2023-07-28T17:50:08;100821.02;;;21.50;68.83
65659;BME280;60181;53.258;6.932;2023-07-28T17:54:18;100824.95;;;21.50;69.09
65659;BME280;60181;53.258;6.932;2023-07-28T17:58:28;100827.12;;;21.49;69.08
65659;BME280;60181;53.258;6.932;2023-07-28T18:02:38;100829.49;;;21.48;69.25
65659;BME280;60181;53.258;6.932;2023-07-28T18:06:48;100832.48;;;21.48;69.21
65659;BME280;60181;53.258;6.932;2023-07-28T18:10:58;100834.55;;;21.48;69.34
65659;BME280;60181;53.258;6.932;2023-07-28T18:15:08;100835.38;;;21.48;69.31
65659;BME280;60181;53.258;6.932;2023-07-28T18:19:18;100835.66;;;21.49;69.37
65659;BME280;60181;53.258;6.932;2023-07-28T18:23:28;100834.16;;;21.49;69.34
65659;BME280;60181;53.258;6.932;2023-07-28T18:27:38;100833.48;;;21.49;69.31
65659;BME280;60181;53.258;6.932;2023-07-28T18:31:48;100834.16;;;21.49;69.33
65659;BME280;60181;53.258;6.932;2023-07-28T18:35:58;100836.81;;;21.48;69.34
65659;BME280;60181;53.258;6.932;2023-07-28T18:40:08;100838.75;;;21.48;69.11
65659;BME280;60181;53.258;6.932;2023-07-28T18:44:18;100841.17;;;21.48;69.20
65659;BME280;60181;53.258;6.932;2023-07-28T18:48:28;100842.58;;;21.47;69.19
65659;BME280;60181;53.258;6.932;2023-07-28T18:52:39;100843.58;;;21.46;69.06
65659;BME280;60181;53.258;6.932;2023-07-28T18:56:48;100843.94;;;21.46;69.17
65659;BME280;60181;53.258;6.932;2023-07-28T19:00:58;100844.19;;;21.45;69.07
65659;BME280;60181;53.258;6.932;2023-07-28T19:05:08;100846.95;;;21.45;69.06
65659;BME280;60181;53.258;6.932;2023-07-28T19:09:18;100848.53;;;21.44;69.23
65659;BME280;60181;53.258;6.932;2023-07-28T19:13:28;100851.12;;;21.44;69.16
65659;BME280;60181;53.258;6.932;2023-07-28T19:17:38;100852.04;;;21.43;69.06
65659;BME280;60181;53.258;6.932;2023-07-28T19:21:48;100852.91;;;21.42;69.10
65659;BME280;60181;53.258;6.932;2023-07-28T19:25:58;100854.83;;;21.42;69.03
65659;BME280;60181;53.258;6.932;2023-07-28T19:30:09;100856.99;;;21.42;69.03
65659;BME280;60181;53.258;6.932;2023-07-28T19:34:18;100857.93;;;21.41;69.00
65659;BME280;60181;53.258;6.932;2023-07-28T19:38:28;100859.69;;;21.40;68.73
65659;BME280;60181;53.258;6.932;2023-07-28T19:42:38;100861.64;;;21.39;68.22
65659;BME280;60181;53.258;6.932;2023-07-28T19:46:48;100865.15;;;21.38;68.03
65659;BME280;60181;53.258;6.932;2023-07-28T19:50:58;100868.59;;;21.36;68.04
65659;BME280;60181;53.258;6.932;2023-07-28T19:55:08;100873.10;;;21.35;67.53
65659;BME280;60181;53.258;6.932;2023-07-28T19:59:18;100876.54;;;21.34;67.71
65659;BME280;60181;53.258;6.932;2023-07-28T20:03:28;100879.72;;;21.33;67.77
65659;BME280;60181;53.258;6.932;2023-07-28T20:07:38;100881.90;;;21.32;67.81
65659;BME280;60181;53.258;6.932;2023-07-28T20:11:48;100883.25;;;21.31;68.04
65659;BME280;60181;53.258;6.932;2023-07-28T20:15:58;100886.00;;;21.30;67.81
65659;BME280;60181;53.258;6.932;2023-07-28T20:20:08;100888.51;;;21.29;67.95
65659;BME280;60181;53.258;6.932;2023-07-28T20:24:18;100890.69;;;21.28;68.06
65659;BME280;60181;53.258;6.932;2023-07-28T20:28:28;100892.64;;;21.27;67.86
65659;BME280;60181;53.258;6.932;2023-07-28T20:32:38;100892.99;;;21.26;68.08
65659;BME280;60181;53.258;6.932;2023-07-28T20:36:48;100893.07;;;21.26;67.93
65659;BME280;60181;53.258;6.932;2023-07-28T20:40:58;100892.22;;;21.25;67.92
65659;BME280;60181;53.258;6.932;2023-07-28T20:45:08;100891.67;;;21.24;67.84
65659;BME280;60181;53.258;6.932;2023-07-28T20:49:18;100891.50;;;21.24;67.68
65659;BME280;60181;53.258;6.932;2023-07-28T20:53:28;100891.96;;;21.23;67.86
65659;BME280;60181;53.258;6.932;2023-07-28T20:57:38;100891.28;;;21.23;67.78
65659;BME280;60181;53.258;6.932;2023-07-28T21:01:48;100888.47;;;21.22;67.75
65659;BME280;60181;53.258;6.932;2023-07-28T21:05:58;100884.45;;;21.21;67.85
65659;BME280;60181;53.258;6.932;2023-07-28T21:10:08;100879.41;;;21.21;67.83
65659;BME280;60181;53.258;6.932;2023-07-28T21:14:18;100876.64;;;21.20;67.79
65659;BME280;60181;53.258;6.932;2023-07-28T21:18:28;100875.26;;;21.20;67.81
65659;BME280;60181;53.258;6.932;2023-07-28T21:22:38;100876.08;;;21.19;67.93
65659;BME280;60181;53.258;6.932;2023-07-28T21:26:48;100875.67;;;21.19;67.91
65659;BME280;60181;53.258;6.932;2023-07-28T21:30:58;100873.93;;;21.18;67.91
65659;BME280;60181;53.258;6.932;2023-07-28T21:35:08;100873.28;;;21.18;67.79
65659;BME280;60181;53.258;6.932;2023-07-28T21:39:18;100874.44;;;21.17;67.78
65659;BME280;60181;53.258;6.932;2023-07-28T21:43:28;100874.88;;;21.17;67.76
65659;BME280;60181;53.258;6.932;2023-07-28T21:47:38;100875.97;;;21.17;67.60
65659;BME280;60181;53.258;6.932;2023-07-28T21:51:48;100876.78;;;21.16;67.76
65659;BME280;60181;53.258;6.932;2023-07-28T21:55:58;100877.87;;;21.16;67.52